Time;durP1;ratioP1;P1;durP2;ratioP2;P2;SDS_P1;SDS_P2;PMS_P1;PMS_P2;Temp;Humidity;BMP_temperature;BMP_pressure;BME280_temperature;BME280_humidity;BME280_pressure;Samples;Min_cycle;Max_cycle;Signal;HPM_P1;HPM_P2
2021/06/26 00:00:53;;;;;;;;;7.75;7.50;;;;;;;;6404008;22;46990;-80
2021/06/26 00:03:22;;;;;;;;;7.00;7.00;;;;;;;;6417637;22;46727;-80
2021/06/26 00:05:47;;;;;;;;;8.00;8.00;;;;;;;;6423498;22;31805;-80
2021/06/26 00:08:13;;;;;;;;;8.00;7.25;;;;;;;;6387838;22;46522;-80
2021/06/26 00:10:39;;;;;;;;;7.00;6.75;;;;;;;;6422079;22;45414;-81
2021/06/26 00:13:04;;;;;;;;;9.25;8.75;;;;;;;;6423626;22;46081;-80
2021/06/26 00:15:29;;;;;;;;;7.75;7.25;;;;;;;;6408691;22;46702;-80
2021/06/26 00:17:55;;;;;;;;;8.50;7.75;;;;;;;;6413761;22;46759;-81
2021/06/26 00:20:20;;;;;;;;;8.00;7.00;;;;;;;;6416255;22;47014;-80
2021/06/26 00:22:45;;;;;;;;;8.50;8.25;;;;;;;;6404930;22;46777;-81
2021/06/26 00:25:11;;;;;;;;;12.50;9.25;;;;;;;;6403927;22;46755;-80
2021/06/26 00:27:36;;;;;;;;;8.50;7.75;;;;;;;;6404293;22;46772;-80
2021/06/26 00:30:02;;;;;;;;;7.75;7.75;;;;;;;;6403242;22;47039;-79
2021/06/26 00:32:28;;;;;;;;;12.00;10.50;;;;;;;;6376049;22;46749;-80
2021/06/26 00:34:53;;;;;;;;;11.75;9.00;;;;;;;;6415560;22;46460;-79
2021/06/26 00:37:18;;;;;;;;;8.25;8.25;;;;;;;;6414327;22;46726;-81
2021/06/26 00:39:44;;;;;;;;;9.00;8.50;;;;;;;;6424668;22;29455;-81
2021/06/26 00:42:09;;;;;;;;;11.25;9.75;;;;;;;;6424928;22;29584;-81
2021/06/26 00:44:34;;;;;;;;;13.50;12.50;;;;;;;;6424371;22;30421;-81
2021/06/26 00:47:00;;;;;;;;;10.25;9.75;;;;;;;;6424907;22;29432;-82
2021/06/26 00:49:26;;;;;;;;;10.00;9.75;;;;;;;;6424672;22;29617;-82
2021/06/26 00:51:51;;;;;;;;;10.00;9.25;;;;;;;;6425398;22;29503;-82
2021/06/26 00:54:16;;;;;;;;;10.00;10.00;;;;;;;;6424630;22;29395;-82
2021/06/26 00:56:42;;;;;;;;;9.25;8.25;;;;;;;;6395233;22;29555;-83
2021/06/26 00:59:07;;;;;;;;;11.00;8.50;;;;;;;;6424684;22;29219;-82
2021/06/26 01:01:32;;;;;;;;;10.25;9.75;;;;;;;;6424664;22;29288;-82
2021/06/26 01:03:58;;;;;;;;;11.50;9.00;;;;;;;;6424319;22;29546;-82
2021/06/26 01:06:23;;;;;;;;;8.25;7.75;;;;;;;;6395836;22;30467;-82
2021/06/26 01:08:48;;;;;;;;;11.25;10.25;;;;;;;;6424912;22;29402;-82
2021/06/26 01:11:14;;;;;;;;;11.00;10.75;;;;;;;;6424668;22;29497;-82
2021/06/26 01:13:39;;;;;;;;;9.50;8.00;;;;;;;;6424035;22;30311;-82
2021/06/26 01:16:05;;;;;;;;;13.00;10.50;;;;;;;;6424062;22;29250;-82
2021/06/26 01:18:30;;;;;;;;;10.25;9.50;;;;;;;;6419089;22;46187;-82
2021/06/26 01:20:56;;;;;;;;;11.50;10.50;;;;;;;;6424656;22;29181;-82
2021/06/26 01:23:24;;;;;;;;;12.50;11.25;;;;;;;;6424607;22;29402;-82
2021/06/26 01:25:49;;;;;;;;;11.00;10.75;;;;;;;;6424622;22;29297;-82
2021/06/26 01:28:15;;;;;;;;;10.25;9.50;;;;;;;;6423701;22;37800;-82
2021/06/26 01:30:40;;;;;;;;;11.00;9.75;;;;;;;;6423097;22;44544;-82
2021/06/26 01:33:06;;;;;;;;;11.25;11.25;;;;;;;;6416330;22;46280;-82
2021/06/26 01:35:31;;;;;;;;;10.75;9.25;;;;;;;;6420097;22;46874;-82
2021/06/26 01:37:57;;;;;;;;;10.00;10.00;;;;;;;;6379860;22;46769;-82
2021/06/26 01:40:23;;;;;;;;;10.00;9.75;;;;;;;;6404167;22;46965;-83
2021/06/26 01:42:50;;;;;;;;;10.75;10.75;;;;;;;;6404233;22;48031;-83
2021/06/26 01:45:16;;;;;;;;;8.75;8.25;;;;;;;;6421778;22;46228;-83
2021/06/26 01:47:45;;;;;;;;;11.25;9.75;;;;;;;;6424458;22;29237;-83
2021/06/26 01:50:10;;;;;;;;;10.25;9.50;;;;;;;;6424513;22;29383;-83
2021/06/26 01:52:36;;;;;;;;;8.75;8.75;;;;;;;;6424084;22;29726;-83
2021/06/26 01:55:02;;;;;;;;;12.50;11.25;;;;;;;;6424437;22;29385;-83
2021/06/26 01:57:27;;;;;;;;;9.50;9.00;;;;;;;;6392301;22;45472;-83
2021/06/26 01:59:52;;;;;;;;;9.00;9.00;;;;;;;;6385588;22;46639;-83
2021/06/26 02:02:18;;;;;;;;;7.25;7.25;;;;;;;;6420954;22;46928;-83
2021/06/26 02:04:43;;;;;;;;;9.25;8.25;;;;;;;;6422121;22;43023;-83
2021/06/26 02:07:09;;;;;;;;;7.00;7.00;;;;;;;;6424209;22;29275;-83
2021/06/26 02:09:34;;;;;;;;;9.25;8.25;;;;;;;;6424326;22;29323;-83
2021/06/26 02:11:59;;;;;;;;;9.50;9.00;;;;;;;;6423691;22;29353;-83
2021/06/26 02:14:25;;;;;;;;;8.25;8.00;;;;;;;;6423833;22;29405;-83
2021/06/26 02:16:50;;;;;;;;;8.75;8.50;;;;;;;;6395266;22;29241;-83
2021/06/26 02:19:15;;;;;;;;;7.75;7.50;;;;;;;;6424431;22;29385;-83
2021/06/26 02:21:41;;;;;;;;;7.50;7.25;;;;;;;;6424125;22;29474;-83
2021/06/26 02:24:06;;;;;;;;;9.00;8.25;;;;;;;;6395070;22;29260;-82
2021/06/26 02:26:32;;;;;;;;;12.75;8.00;;;;;;;;6423154;22;29412;-83
2021/06/26 02:28:57;;;;;;;;;8.50;8.00;;;;;;;;6423987;22;29470;-82
2021/06/26 02:31:22;;;;;;;;;12.00;9.25;;;;;;;;6425545;22;30117;-82
2021/06/26 02:33:48;;;;;;;;;11.25;11.00;;;;;;;;6425123;22;29229;-82
2021/06/26 02:36:13;;;;;;;;;11.75;11.00;;;;;;;;6425541;22;29251;-83
2021/06/26 02:38:38;;;;;;;;;9.50;9.00;;;;;;;;6425318;22;29285;-83
2021/06/26 02:41:04;;;;;;;;;10.50;10.50;;;;;;;;6425092;22;30326;-83
2021/06/26 02:43:29;;;;;;;;;11.25;9.50;;;;;;;;6395781;22;29261;-83
2021/06/26 02:45:54;;;;;;;;;12.00;8.75;;;;;;;;6425343;22;29470;-82
2021/06/26 02:48:20;;;;;;;;;14.50;10.25;;;;;;;;6425179;22;29374;-83
2021/06/26 02:50:45;;;;;;;;;12.00;10.50;;;;;;;;6425290;22;29425;-82
2021/06/26 02:53:11;;;;;;;;;10.75;10.75;;;;;;;;6425165;22;29366;-83
2021/06/26 02:55:36;;;;;;;;;12.00;11.75;;;;;;;;6425081;22;29538;-84
2021/06/26 02:58:09;;;;;;;;;10.50;10.25;;;;;;;;6425027;22;29429;-83
2021/06/26 03:00:35;;;;;;;;;12.25;12.25;;;;;;;;6425445;22;30293;-82
2021/06/26 03:03:00;;;;;;;;;12.50;12.50;;;;;;;;6422456;22;46733;-84
2021/06/26 03:05:28;;;;;;;;;12.75;12.00;;;;;;;;6396148;22;29334;-83
2021/06/26 03:07:54;;;;;;;;;16.50;14.75;;;;;;;;6424105;22;43051;-82
2021/06/26 03:10:20;;;;;;;;;16.75;13.00;;;;;;;;6423109;22;46780;-83
2021/06/26 03:12:46;;;;;;;;;15.75;15.00;;;;;;;;6425128;22;29210;-82
2021/06/26 03:15:34;;;;;;;;;13.25;13.00;;;;;;;;6425067;22;29181;-83
2021/06/26 03:18:00;;;;;;;;;16.00;14.00;;;;;;;;6425481;22;29239;-83
2021/06/26 03:20:25;;;;;;;;;12.00;12.00;;;;;;;;6425342;22;29483;-83
2021/06/26 03:22:51;;;;;;;;;11.75;10.75;;;;;;;;6424432;22;45176;-83
2021/06/26 03:25:16;;;;;;;;;12.50;11.75;;;;;;;;6425016;22;29322;-82
2021/06/26 03:27:42;;;;;;;;;15.50;15.50;;;;;;;;6424700;22;38076;-82
2021/06/26 03:30:08;;;;;;;;;13.75;13.75;;;;;;;;6424143;22;29613;-83
2021/06/26 03:32:34;;;;;;;;;17.25;13.75;;;;;;;;6424887;22;29380;-83
2021/06/26 03:34:59;;;;;;;;;12.75;12.75;;;;;;;;6425558;22;29378;-82
2021/06/26 03:37:24;;;;;;;;;12.00;12.00;;;;;;;;6425118;22;29231;-83
2021/06/26 03:39:50;;;;;;;;;18.00;13.75;;;;;;;;6424631;22;29319;-83
2021/06/26 03:42:15;;;;;;;;;14.50;14.25;;;;;;;;6395670;22;29518;-84
2021/06/26 03:44:41;;;;;;;;;16.00;14.50;;;;;;;;6417687;22;46727;-83
2021/06/26 03:47:06;;;;;;;;;17.25;15.75;;;;;;;;6375327;22;46771;-84
2021/06/26 03:49:41;;;;;;;;;17.50;16.00;;;;;;;;6390090;22;48492;-84
2021/06/26 03:52:20;;;;;;;;;;;;;;;;;;;;;
2021/06/26 04:00:48;;;;;;;;;13.50;12.75;;;;;;;;6353602;22;29461;-84
2021/06/26 04:03:44;;;;;;;;;11.50;11.50;;;;;;;;6424640;22;29633;-86
2021/06/26 04:06:47;;;;;;;;;;;;;;;;;;;;;
2021/06/26 04:34:53;;;;;;;;;;;;;;;;;;;;;
2021/06/26 04:38:00;;;;;;;;;;;;;;;;;;;;;
2021/06/26 04:47:10;;;;;;;;;;;;;;;;;;;;;
2021/06/26 04:52:52;;;;;;;;;;;;;;;;;;;;;
2021/06/26 04:55:40;;;;;;;;;14.00;12.25;;;;;;;;6359052;22;56990;-85
2021/06/26 04:58:18;;;;;;;;;8.75;8.75;;;;;;;;6298724;22;29931;-85
2021/06/26 05:01:03;;;;;;;;;;;;;;;;;;;;;
2021/06/26 05:03:57;;;;;;;;;11.25;10.75;;;;;;;;6351755;22;74259;-85
2021/06/26 05:09:17;;;;;;;;;;;;;;;;;;;;;
2021/06/26 05:15:24;;;;;;;;;;;;;;;;;;;;;
2021/06/26 05:18:27;;;;;;;;;;;;;;;;;;;;;
2021/06/26 05:20:54;;;;;;;;;9.00;8.00;;;;;;;;6351482;22;29729;-85
2021/06/26 05:23:27;;;;;;;;;9.00;8.25;;;;;;;;6331271;22;31769;-85
2021/06/26 05:26:01;;;;;;;;;12.75;9.00;;;;;;;;6340140;22;29786;-85
2021/06/26 05:28:31;;;;;;;;;10.25;8.50;;;;;;;;6357563;22;29402;-84
2021/06/26 05:30:57;;;;;;;;;10.75;9.25;;;;;;;;6411924;22;29370;-84
2021/06/26 05:33:24;;;;;;;;;11.75;10.00;;;;;;;;6390974;22;29664;-84
2021/06/26 05:35:50;;;;;;;;;10.25;10.25;;;;;;;;6391779;22;29205;-84
2021/06/26 05:38:23;;;;;;;;;7.75;6.75;;;;;;;;6391798;22;29398;-84
2021/06/26 05:40:50;;;;;;;;;10.25;8.00;;;;;;;;6363313;22;29234;-84
2021/06/26 05:43:16;;;;;;;;;6.25;6.00;;;;;;;;6391573;22;30251;-82
2021/06/26 05:45:42;;;;;;;;;9.75;7.00;;;;;;;;6391825;22;29471;-84
2021/06/26 05:48:07;;;;;;;;;11.25;9.75;;;;;;;;6392470;22;29420;-83
2021/06/26 05:50:33;;;;;;;;;6.00;6.00;;;;;;;;6392223;22;29450;-84
2021/06/26 05:52:58;;;;;;;;;8.00;7.75;;;;;;;;6391849;22;29472;-83
2021/06/26 05:55:24;;;;;;;;;7.50;7.50;;;;;;;;6362890;22;29691;-82
2021/06/26 05:57:50;;;;;;;;;8.25;7.50;;;;;;;;6391650;22;29408;-83
2021/06/26 06:03:38;;;;;;;;;7.50;7.50;;;;;;;;6325859;22;30322;-82
2021/06/26 06:06:22;;;;;;;;;7.25;5.50;;;;;;;;6326724;22;29596;-85
2021/06/26 06:08:47;;;;;;;;;11.25;9.50;;;;;;;;6349897;22;29556;-83
2021/06/26 06:11:44;;;;;;;;;7.50;7.00;;;;;;;;6393077;22;29393;-85
2021/06/26 06:14:09;;;;;;;;;9.00;8.25;;;;;;;;6344486;22;30791;-81
2021/06/26 06:16:37;;;;;;;;;9.00;6.75;;;;;;;;6393241;22;29348;-84
2021/06/26 06:25:15;;;;;;;;;8.75;7.50;;;;;;;;6364768;22;29347;-84
2021/06/26 06:27:41;;;;;;;;;8.50;7.00;;;;;;;;6363837;22;29442;-83
2021/06/26 06:30:07;;;;;;;;;8.75;8.00;;;;;;;;6392597;22;29400;-84
2021/06/26 06:32:33;;;;;;;;;8.25;7.00;;;;;;;;6392775;22;29568;-84
2021/06/26 06:35:01;;;;;;;;;8.00;8.00;;;;;;;;6364166;22;30974;-83
2021/06/26 06:37:26;;;;;;;;;8.00;6.00;;;;;;;;6392926;22;29274;-82
2021/06/26 06:39:51;;;;;;;;;7.50;6.00;;;;;;;;6364359;22;29545;-82
2021/06/26 06:42:17;;;;;;;;;9.25;7.50;;;;;;;;6393327;22;29231;-82
2021/06/26 06:44:42;;;;;;;;;7.00;7.00;;;;;;;;6392859;22;29446;-82
2021/06/26 06:47:07;;;;;;;;;10.00;9.50;;;;;;;;6364388;22;29400;-82
2021/06/26 06:49:33;;;;;;;;;6.25;6.25;;;;;;;;6393144;22;29301;-82
2021/06/26 06:51:58;;;;;;;;;5.50;4.00;;;;;;;;6393332;22;29225;-82
2021/06/26 06:54:24;;;;;;;;;5.25;5.25;;;;;;;;6393426;22;29302;-82
2021/06/26 06:56:49;;;;;;;;;5.50;5.50;;;;;;;;6392832;22;29367;-82
2021/06/26 06:59:14;;;;;;;;;6.00;6.00;;;;;;;;6392718;22;29177;-82
2021/06/26 07:01:40;;;;;;;;;5.25;5.25;;;;;;;;6393054;22;29574;-82
2021/06/26 07:04:05;;;;;;;;;6.00;5.75;;;;;;;;6392492;22;29307;-82
2021/06/26 07:06:31;;;;;;;;;6.00;4.75;;;;;;;;6392877;22;29456;-82
2021/06/26 07:08:56;;;;;;;;;6.50;6.00;;;;;;;;6393214;22;29300;-82
2021/06/26 07:11:22;;;;;;;;;6.75;6.25;;;;;;;;6393218;22;29724;-82
2021/06/26 07:13:48;;;;;;;;;5.25;4.75;;;;;;;;6363221;22;29626;-82
2021/06/26 07:16:13;;;;;;;;;6.00;6.00;;;;;;;;6392707;22;29511;-82
2021/06/26 07:18:38;;;;;;;;;7.25;7.00;;;;;;;;6392956;22;29268;-83
2021/06/26 07:21:04;;;;;;;;;8.75;8.50;;;;;;;;6393252;22;29371;-83
2021/06/26 07:23:29;;;;;;;;;7.50;7.25;;;;;;;;6364025;22;31575;-83
2021/06/26 07:25:54;;;;;;;;;8.00;7.00;;;;;;;;6393383;22;29332;-83
2021/06/26 07:28:20;;;;;;;;;8.25;7.25;;;;;;;;6392659;22;29201;-83
2021/06/26 07:30:45;;;;;;;;;9.00;7.25;;;;;;;;6364215;22;29583;-83
2021/06/26 07:33:10;;;;;;;;;12.25;8.00;;;;;;;;6392768;22;29602;-83
2021/06/26 07:35:36;;;;;;;;;6.00;6.00;;;;;;;;6392698;22;29274;-83
2021/06/26 07:38:01;;;;;;;;;9.50;9.50;;;;;;;;6392892;22;29242;-83
2021/06/26 07:40:27;;;;;;;;;10.00;10.00;;;;;;;;6393160;22;29409;-82
2021/06/26 07:42:53;;;;;;;;;9.00;9.00;;;;;;;;6393261;22;29421;-82
2021/06/26 07:45:18;;;;;;;;;9.75;9.50;;;;;;;;6392684;22;29190;-82
2021/06/26 07:47:44;;;;;;;;;8.50;8.50;;;;;;;;6392718;22;29355;-81
2021/06/26 07:50:09;;;;;;;;;7.50;7.50;;;;;;;;6393222;22;29624;-81
2021/06/26 07:52:35;;;;;;;;;7.25;7.25;;;;;;;;6392571;22;29405;-82
2021/06/26 07:55:00;;;;;;;;;10.00;8.75;;;;;;;;6392790;22;29318;-82
2021/06/26 07:57:26;;;;;;;;;6.25;6.25;;;;;;;;6392626;22;29220;-81
2021/06/26 07:59:51;;;;;;;;;8.00;7.75;;;;;;;;6392974;22;29669;-81
2021/06/26 08:02:16;;;;;;;;;9.25;7.25;;;;;;;;6392771;22;29536;-82
2021/06/26 08:04:42;;;;;;;;;13.00;9.25;;;;;;;;6392591;22;29321;-83
2021/06/26 08:07:07;;;;;;;;;8.50;7.00;;;;;;;;6391956;22;29307;-83
2021/06/26 08:09:33;;;;;;;;;8.75;7.50;;;;;;;;6392404;22;29366;-81
2021/06/26 08:11:58;;;;;;;;;8.75;8.75;;;;;;;;6392302;22;30359;-81
2021/06/26 08:14:23;;;;;;;;;10.00;8.50;;;;;;;;6363643;22;30422;-81
2021/06/26 08:16:49;;;;;;;;;9.50;8.50;;;;;;;;6392561;22;29497;-83
2021/06/26 08:19:14;;;;;;;;;9.50;9.50;;;;;;;;6392839;22;29307;-81
2021/06/26 08:21:40;;;;;;;;;8.25;7.00;;;;;;;;6363842;22;31001;-81
2021/06/26 08:24:06;;;;;;;;;10.50;10.50;;;;;;;;6392157;22;29480;-81
2021/06/26 08:26:31;;;;;;;;;8.25;8.25;;;;;;;;6391530;22;29147;-81
2021/06/26 08:28:56;;;;;;;;;8.50;8.50;;;;;;;;6363488;22;29762;-80
2021/06/26 08:31:22;;;;;;;;;9.25;8.50;;;;;;;;6391919;22;29323;-81
2021/06/26 08:33:47;;;;;;;;;10.75;10.00;;;;;;;;6392234;22;29378;-81
2021/06/26 08:36:12;;;;;;;;;10.00;10.00;;;;;;;;6392302;22;29419;-81
2021/06/26 08:38:39;;;;;;;;;9.50;7.75;;;;;;;;6392669;22;29231;-80
2021/06/26 08:41:04;;;;;;;;;9.25;8.75;;;;;;;;6392552;22;29243;-80
2021/06/26 08:43:30;;;;;;;;;11.50;9.50;;;;;;;;6391880;22;29401;-80
2021/06/26 08:45:58;;;;;;;;;9.25;9.25;;;;;;;;6392312;22;29457;-80
2021/06/26 08:48:25;;;;;;;;;8.50;8.50;;;;;;;;6391978;22;29349;-80
2021/06/26 08:50:50;;;;;;;;;11.00;11.00;;;;;;;;6391418;22;29743;-81
2021/06/26 08:53:15;;;;;;;;;12.75;9.75;;;;;;;;6363264;22;29446;-80
2021/06/26 08:55:41;;;;;;;;;10.50;8.50;;;;;;;;6391998;22;29437;-79
2021/06/26 08:58:07;;;;;;;;;10.75;7.00;;;;;;;;6391521;22;29221;-80
2021/06/26 09:00:32;;;;;;;;;9.50;9.25;;;;;;;;6392119;22;29270;-80
2021/06/26 09:03:24;;;;;;;;;15.25;11.75;;;;;;;;6391227;22;29417;-80
2021/06/26 09:05:50;;;;;;;;;13.25;10.25;;;;;;;;6357599;22;29371;-80
2021/06/26 09:08:16;;;;;;;;;13.50;9.50;;;;;;;;6392383;22;29425;-80
2021/06/26 09:10:43;;;;;;;;;14.75;13.00;;;;;;;;6392129;22;29352;-80
2021/06/26 09:13:12;;;;;;;;;9.00;9.00;;;;;;;;6392130;22;29331;-81
2021/06/26 09:15:38;;;;;;;;;13.00;10.25;;;;;;;;6391963;22;29395;-80
2021/06/26 09:18:10;;;;;;;;;10.25;8.00;;;;;;;;6389519;22;46219;-80
2021/06/26 09:20:37;;;;;;;;;10.00;8.00;;;;;;;;6392410;22;30286;-81
2021/06/26 09:23:04;;;;;;;;;13.00;11.00;;;;;;;;6392135;22;29480;-80
2021/06/26 09:25:34;;;;;;;;;9.75;9.75;;;;;;;;6389397;22;46812;-81
2021/06/26 09:28:00;;;;;;;;;10.25;10.00;;;;;;;;6392042;22;29687;-81
2021/06/26 09:30:34;;;;;;;;;9.00;7.00;;;;;;;;6391551;22;30460;-80
2021/06/26 09:33:01;;;;;;;;;12.50;9.75;;;;;;;;6391870;22;29425;-82
2021/06/26 09:35:26;;;;;;;;;8.25;8.25;;;;;;;;6392114;22;29363;-82
2021/06/26 09:37:55;;;;;;;;;10.00;10.00;;;;;;;;6392569;22;29376;-82
2021/06/26 09:40:28;;;;;;;;;9.25;9.25;;;;;;;;6363249;22;31919;-81
2021/06/26 09:42:53;;;;;;;;;10.00;10.00;;;;;;;;6391497;22;29326;-81
2021/06/26 09:45:20;;;;;;;;;11.50;8.50;;;;;;;;6391818;22;29252;-82
2021/06/26 09:47:46;;;;;;;;;12.00;9.25;;;;;;;;6392015;22;29687;-83
2021/06/26 09:50:18;;;;;;;;;10.50;9.50;;;;;;;;6392130;22;29597;-83
2021/06/26 09:52:48;;;;;;;;;9.25;9.25;;;;;;;;6391063;22;29468;-82
2021/06/26 09:55:18;;;;;;;;;9.00;8.75;;;;;;;;6392054;22;29370;-82
2021/06/26 09:57:43;;;;;;;;;12.25;9.75;;;;;;;;6391273;22;29308;-82
2021/06/26 10:00:09;;;;;;;;;8.00;7.25;;;;;;;;6391528;22;29389;-83
2021/06/26 10:02:35;;;;;;;;;6.00;6.00;;;;;;;;6362763;22;29577;-80
2021/06/26 10:05:01;;;;;;;;;9.25;7.50;;;;;;;;6391995;22;29304;-81
2021/06/26 10:07:28;;;;;;;;;9.50;8.00;;;;;;;;6391521;22;29267;-81
2021/06/26 10:09:54;;;;;;;;;9.25;9.25;;;;;;;;6391394;22;30299;-81
2021/06/26 10:12:19;;;;;;;;;9.25;8.00;;;;;;;;6391533;22;29327;-81
2021/06/26 10:14:45;;;;;;;;;7.25;7.25;;;;;;;;6391522;22;29500;-80
2021/06/26 10:17:11;;;;;;;;;8.25;7.75;;;;;;;;6391200;22;29346;-80
2021/06/26 10:19:37;;;;;;;;;9.00;8.00;;;;;;;;6362724;22;31644;-80
2021/06/26 10:22:02;;;;;;;;;11.00;9.25;;;;;;;;6391652;22;29433;-80
2021/06/26 10:24:28;;;;;;;;;8.00;6.25;;;;;;;;6391801;22;29446;-79
2021/06/26 10:26:53;;;;;;;;;11.00;9.00;;;;;;;;6392047;22;29704;-79
2021/06/26 10:29:27;;;;;;;;;11.25;10.75;;;;;;;;6391183;22;29414;-80
2021/06/26 10:31:52;;;;;;;;;9.75;8.75;;;;;;;;6391714;22;29429;-82
2021/06/26 10:34:25;;;;;;;;;20.75;18.75;;;;;;;;6362626;22;29406;-83
2021/06/26 10:36:51;;;;;;;;;14.50;11.75;;;;;;;;6391532;22;29702;-80
2021/06/26 10:39:30;;;;;;;;;8.25;7.75;;;;;;;;6390956;22;29390;-82
2021/06/26 10:42:06;;;;;;;;;8.75;8.75;;;;;;;;6391084;22;29368;-82
2021/06/26 10:44:40;;;;;;;;;7.50;7.50;;;;;;;;6362379;22;29280;-81
2021/06/26 10:47:06;;;;;;;;;11.25;10.00;;;;;;;;6391193;22;29423;-83
2021/06/26 10:49:31;;;;;;;;;15.75;13.75;;;;;;;;6391748;22;29476;-87
2021/06/26 10:52:07;;;;;;;;;11.00;10.75;;;;;;;;6364522;22;29882;-81
2021/06/26 10:54:32;;;;;;;;;10.50;8.75;;;;;;;;6393464;22;29319;-87
2021/06/26 10:57:02;;;;;;;;;7.00;6.75;;;;;;;;6393312;22;29299;-86
2021/06/26 10:59:27;;;;;;;;;9.25;7.25;;;;;;;;6392670;22;30527;-87
2021/06/26 11:01:54;;;;;;;;;9.00;7.25;;;;;;;;6392164;22;40811;-88
2021/06/26 11:04:19;;;;;;;;;10.00;9.25;;;;;;;;6364616;22;29408;-91
2021/06/26 11:06:47;;;;;;;;;10.50;8.50;;;;;;;;6365431;22;29441;-93
2021/06/26 11:09:13;;;;;;;;;10.00;9.50;;;;;;;;6364702;22;30965;-92
2021/06/26 11:11:48;;;;;;;;;8.50;7.00;;;;;;;;6364984;22;30927;-90
2021/06/26 11:14:18;;;;;;;;;12.00;11.75;;;;;;;;6364468;22;29428;-89
2021/06/26 11:16:48;;;;;;;;;26.75;25.75;;;;;;;;6364745;22;29433;-88
2021/06/26 11:19:16;;;;;;;;;19.50;18.00;;;;;;;;6392221;22;30234;-87
2021/06/26 11:21:44;;;;;;;;;12.00;10.25;;;;;;;;6392626;22;29440;-85
2021/06/26 11:24:12;;;;;;;;;10.75;10.50;;;;;;;;6392927;22;29419;-86
2021/06/26 11:26:44;;;;;;;;;10.00;10.00;;;;;;;;6392802;22;29278;-86
2021/06/26 11:29:09;;;;;;;;;11.50;8.75;;;;;;;;6392324;22;29470;-84
2021/06/26 11:31:35;;;;;;;;;12.00;12.00;;;;;;;;6392249;22;29460;-85
2021/06/26 11:34:09;;;;;;;;;14.00;10.00;;;;;;;;6410748;22;28743;-84
2021/06/26 11:36:34;;;;;;;;;10.00;10.00;;;;;;;;6419128;22;8694;-85
2021/06/26 11:39:01;;;;;;;;;10.00;9.50;;;;;;;;6418901;22;8730;-85
2021/06/26 11:41:28;;;;;;;;;11.75;10.50;;;;;;;;6418701;22;8710;-84
2021/06/26 11:43:53;;;;;;;;;10.50;8.00;;;;;;;;6418653;22;8682;-85
2021/06/26 11:46:19;;;;;;;;;14.75;11.00;;;;;;;;6419294;22;8765;-84
2021/06/26 11:48:45;;;;;;;;;12.50;12.50;;;;;;;;6390243;22;8750;-82
2021/06/26 11:51:13;;;;;;;;;11.00;10.00;;;;;;;;6419035;22;8702;-86
2021/06/26 11:53:40;;;;;;;;;10.75;10.75;;;;;;;;6418919;22;9768;-85
2021/06/26 11:56:08;;;;;;;;;10.00;9.00;;;;;;;;6419331;22;8721;-85
2021/06/26 11:58:44;;;;;;;;;13.50;12.00;;;;;;;;6417871;22;8714;-85
2021/06/26 12:01:10;;;;;;;;;13.50;11.50;;;;;;;;6419109;22;8745;-85
2021/06/26 12:03:36;;;;;;;;;13.25;11.25;;;;;;;;6390197;22;9151;-85
2021/06/26 12:06:05;;;;;;;;;13.00;12.75;;;;;;;;6419000;22;8741;-87
2021/06/26 12:08:32;;;;;;;;;15.25;11.00;;;;;;;;6419070;22;8808;-85
2021/06/26 12:11:00;;;;;;;;;12.00;11.50;;;;;;;;6418186;22;8722;-84
2021/06/26 12:13:27;;;;;;;;;10.75;10.25;;;;;;;;6418303;22;8698;-84
2021/06/26 12:15:53;;;;;;;;;13.00;11.75;;;;;;;;6418742;22;8714;-85
2021/06/26 12:18:18;;;;;;;;;14.75;13.25;;;;;;;;6389653;22;9564;-85
2021/06/26 12:20:44;;;;;;;;;11.75;10.25;;;;;;;;6418567;22;8706;-85
2021/06/26 12:23:10;;;;;;;;;15.25;14.00;;;;;;;;6418626;22;8725;-84
2021/06/26 12:25:40;;;;;;;;;14.75;12.50;;;;;;;;6418861;22;8745;-85
2021/06/26 12:28:08;;;;;;;;;14.00;12.75;;;;;;;;6418435;22;8802;-84
2021/06/26 12:30:34;;;;;;;;;14.00;12.75;;;;;;;;6418042;22;8925;-85
2021/06/26 12:33:07;;;;;;;;;16.50;16.00;;;;;;;;6418859;22;8741;-84
2021/06/26 12:35:33;;;;;;;;;17.50;15.00;;;;;;;;6418668;22;8829;-85
2021/06/26 12:37:58;;;;;;;;;17.00;15.50;;;;;;;;6389946;22;8738;-85
2021/06/26 12:40:28;;;;;;;;;12.75;11.25;;;;;;;;6418358;22;8741;-84
2021/06/26 12:43:02;;;;;;;;;16.00;10.75;;;;;;;;6418436;22;8706;-84
2021/06/26 12:45:36;;;;;;;;;15.75;14.25;;;;;;;;6389761;22;8714;-83
2021/06/26 12:48:07;;;;;;;;;13.25;13.25;;;;;;;;6418742;22;8850;-85
2021/06/26 12:50:44;;;;;;;;;16.00;15.25;;;;;;;;6418365;22;8730;-84
2021/06/26 12:53:10;;;;;;;;;13.25;13.00;;;;;;;;6418813;22;8729;-83
2021/06/26 12:55:35;;;;;;;;;15.50;11.50;;;;;;;;6418860;22;8802;-84
2021/06/26 12:58:06;;;;;;;;;14.00;12.75;;;;;;;;6418626;22;8761;-84
2021/06/26 13:00:31;;;;;;;;;14.25;14.25;;;;;;;;6418915;22;8748;-84
2021/06/26 13:02:56;;;;;;;;;16.50;13.50;;;;;;;;6418438;22;8726;-85
2021/06/26 13:05:23;;;;;;;;;14.50;12.50;;;;;;;;6418303;22;9454;-85
2021/06/26 13:08:09;;;;;;;;;14.75;13.00;;;;;;;;6418863;22;8742;-85
2021/06/26 13:10:36;;;;;;;;;16.00;15.75;;;;;;;;6417119;22;8753;-87
2021/06/26 13:13:02;;;;;;;;;17.25;16.25;;;;;;;;6388954;22;8734;-83
2021/06/26 13:15:28;;;;;;;;;15.75;14.25;;;;;;;;6418737;22;8706;-84
2021/06/26 13:17:54;;;;;;;;;12.50;12.50;;;;;;;;6418175;22;8740;-83
2021/06/26 13:20:19;;;;;;;;;15.75;12.25;;;;;;;;6417947;22;8726;-86
2021/06/26 13:22:45;;;;;;;;;16.75;14.75;;;;;;;;6389113;22;8828;-86
2021/06/26 13:25:12;;;;;;;;;14.50;13.00;;;;;;;;6418433;22;8750;-83
2021/06/26 13:27:42;;;;;;;;;12.75;12.00;;;;;;;;6417712;22;8803;-86
2021/06/26 13:30:08;;;;;;;;;9.25;6.50;;;;;;;;6389430;22;8753;-84
2021/06/26 13:32:33;;;;;;;;;9.25;8.50;;;;;;;;6418333;22;8709;-83
2021/06/26 13:34:59;;;;;;;;;14.25;12.00;;;;;;;;6417967;22;8737;-84
2021/06/26 13:37:24;;;;;;;;;9.50;9.00;;;;;;;;6418130;22;8745;-82
2021/06/26 13:39:49;;;;;;;;;10.75;10.00;;;;;;;;6417939;22;8737;-83
2021/06/26 13:42:15;;;;;;;;;10.75;9.50;;;;;;;;6418335;22;8742;-82
2021/06/26 13:44:40;;;;;;;;;13.00;10.00;;;;;;;;6417328;22;8806;-83
2021/06/26 13:47:06;;;;;;;;;11.75;10.75;;;;;;;;6417952;22;8777;-84
2021/06/26 13:49:32;;;;;;;;;11.50;10.00;;;;;;;;6418102;22;8718;-80
2021/06/26 13:51:57;;;;;;;;;11.00;11.00;;;;;;;;6418308;22;8888;-80
2021/06/26 13:54:23;;;;;;;;;11.50;10.25;;;;;;;;6418384;22;8775;-81
2021/06/26 13:56:48;;;;;;;;;8.75;8.75;;;;;;;;6418327;22;8840;-80
2021/06/26 13:59:13;;;;;;;;;8.50;8.50;;;;;;;;6417427;22;8737;-81
2021/06/26 14:01:39;;;;;;;;;8.75;8.75;;;;;;;;6418301;22;8737;-81
2021/06/26 14:04:04;;;;;;;;;10.50;9.25;;;;;;;;6418424;22;8754;-81
2021/06/26 14:06:29;;;;;;;;;6.75;5.25;;;;;;;;6389308;22;8813;-81
2021/06/26 14:08:55;;;;;;;;;9.75;8.75;;;;;;;;6418262;22;8737;-81
2021/06/26 14:11:20;;;;;;;;;10.75;9.25;;;;;;;;6417921;22;8817;-81
2021/06/26 14:13:46;;;;;;;;;12.00;11.00;;;;;;;;6417974;22;8751;-81
2021/06/26 14:16:12;;;;;;;;;7.75;7.00;;;;;;;;6418238;22;8789;-81
2021/06/26 14:18:37;;;;;;;;;12.25;9.75;;;;;;;;6388771;22;8765;-82
2021/06/26 14:21:05;;;;;;;;;9.00;8.00;;;;;;;;6389451;22;8738;-82
2021/06/26 14:23:32;;;;;;;;;10.50;9.00;;;;;;;;6417719;22;8772;-82
2021/06/26 14:26:00;;;;;;;;;7.75;7.25;;;;;;;;6418794;22;8768;-82
2021/06/26 14:28:25;;;;;;;;;10.00;10.00;;;;;;;;6390087;22;8671;-85
2021/06/26 14:30:51;;;;;;;;;11.25;10.25;;;;;;;;6419204;22;8864;-86
2021/06/26 14:33:26;;;;;;;;;9.50;9.50;;;;;;;;6418595;22;8757;-86
2021/06/26 14:35:59;;;;;;;;;9.75;9.00;;;;;;;;6389877;22;8741;-82
2021/06/26 14:38:48;;;;;;;;;9.75;9.25;;;;;;;;6419142;22;8732;-83
2021/06/26 14:41:36;;;;;;;;;8.75;8.75;;;;;;;;6317655;22;8884;-84
2021/06/26 14:44:02;;;;;;;;;10.00;9.00;;;;;;;;6393854;22;8698;-79
2021/06/26 14:46:30;;;;;;;;;11.25;9.25;;;;;;;;6418742;22;8777;-83
2021/06/26 14:48:58;;;;;;;;;11.75;10.50;;;;;;;;6419271;22;8757;-84
2021/06/26 14:51:24;;;;;;;;;11.00;10.50;;;;;;;;6390580;22;9046;-82
2021/06/26 14:57:23;;;;;;;;;12.25;11.00;;;;;;;;6395521;22;8737;-83
2021/06/26 14:59:54;;;;;;;;;11.00;9.25;;;;;;;;6412968;22;8678;-84
2021/06/26 15:02:21;;;;;;;;;11.25;9.00;;;;;;;;6389964;22;8811;-83
2021/06/26 15:07:56;;;;;;;;;;;;;;;;;;;;;
2021/06/26 15:20:26;;;;;;;;;;;;;;;;;;;;;
2021/06/26 15:23:28;;;;;;;;;12.25;10.00;;;;;;;;6078298;23;36171;-88
2021/06/26 15:29:17;;;;;;;;;12.25;8.75;;;;;;;;6079752;23;8678;-86
2021/06/26 17:19:41;;;;;;;;;9.75;9.75;;;;;;;;6379098;22;8837;-88
2021/06/26 18:28:49;;;;;;;;;13.50;11.50;;;;;;;;5997635;23;9805;-89
2021/06/26 18:40:55;;;;;;;;;;;;;;;;;;;;;
2021/06/26 18:57:49;;;;;;;;;;;;;;;;;;;;;
2021/06/26 19:00:22;;;;;;;;;;;;;;;;;;;;;
2021/06/26 19:03:18;;;;;;;;;;;;;;;;;;;;;
2021/06/26 19:29:29;;;;;;;;;11.50;11.50;;;;;;;;6334907;22;8849;-91
2021/06/26 19:35:58;;;;;;;;;;;;;;;;;;;;;
2021/06/26 19:38:54;;;;;;;;;12.00;10.25;;;;;;;;6166791;23;37163;-93
2021/06/26 19:54:00;;;;;;;;;13.50;11.00;;;;;;;;6267528;22;8751;-92
2021/06/26 20:06:11;;;;;;;;;13.75;12.50;;;;;;;;6122954;23;8781;-92
2021/06/26 20:09:06;;;;;;;;;;;;;;;;;;;;;
2021/06/26 20:21:30;;;;;;;;;;;;;;;;;;;;;
2021/06/26 20:24:33;;;;;;;;;;;;;;;;;;;;;
2021/06/26 20:52:55;;;;;;;;;;;;;;;;;;;;;
2021/06/26 22:27:41;;;;;;;;;19.75;17.75;;;;;;;;6347181;22;8765;-87
2021/06/26 22:30:12;;;;;;;;;18.25;17.50;;;;;;;;6389027;22;9468;-92
2021/06/26 22:32:37;;;;;;;;;22.00;17.50;;;;;;;;6417121;22;8688;-92